Pagina principale
METAR-TAF:

METAR-TAF

Aeroporti :

Luni

Sarzana, Italia

latitudine: 44-05N, longitudine: 009-59E, altezza: 9 m

Osservazione

Il bollettino è stato emesso 53 minuti fa, alle 10:55 UTC
Temperature 26°C
Umidità 37%
Pressione 1025 hPa
Visibilità 10 km o più
nessuna nube inferiore a 1500 m e nessun cumulonembo

METAR: LIQW 191055Z /////KT CAVOK 26/10 Q1025

Ora: 13:48 (11:48 UTC)

Previsione

Il bollettino è stato emesso 3 ore e 48 minuti fa, alle 08:00 UTC
Previsione valida dal 19 alle 09 UTC al 19 alle 18 UTC
Vento 5 kt da sud-est
Visibilità 10 km o più
Poco nuvoloso ad un'altezza di 5000 ft

TAF: LIQW 190800Z 1909/1918 13005KT 9999 FEW050

Osservazioni e previsioni meteorologiche di più di 4000 aeroporti (messaggi METAR e TAF).

Le stazioni disponibili sono rappresentate dai dischi gialli e rossi sulla carta.

Puntare il mouse per vedere il nome della stazione.

Clicca sopra per visualizzare le osservazioni e previsioni meteorologiche.

Per cambiare la mappa : fare clic sui pulsanti verdi con una croce nera per ingrandire, il pulsante verde con un trattino per diminuire, o sulla freccia verde per le mappe adiacenti.


METAR-TAF: